sensor_id;sensor_type;location;lat;lon;timestamp;temperature;humidity
8103;DHT22;4094;49.948;11.574;2023-08-30T00:01:16;17.30;75.00
8103;DHT22;4094;49.948;11.574;2023-08-30T00:03:45;17.30;75.20
8103;DHT22;4094;49.948;11.574;2023-08-30T00:06:14;17.30;75.20
8103;DHT22;4094;49.948;11.574;2023-08-30T00:08:46;17.30;75.30
8103;DHT22;4094;49.948;11.574;2023-08-30T00:11:15;17.30;75.40
8103;DHT22;4094;49.948;11.574;2023-08-30T00:13:44;17.20;75.40
8103;DHT22;4094;49.948;11.574;2023-08-30T00:16:13;17.20;75.40
8103;DHT22;4094;49.948;11.574;2023-08-30T00:18:45;17.20;75.40
8103;DHT22;4094;49.948;11.574;2023-08-30T00:21:14;17.20;75.50
8103;DHT22;4094;49.948;11.574;2023-08-30T00:23:45;17.20;75.50
8103;DHT22;4094;49.948;11.574;2023-08-30T00:26:14;17.20;75.70
8103;DHT22;4094;49.948;11.574;2023-08-30T00:28:43;17.10;75.70
8103;DHT22;4094;49.948;11.574;2023-08-30T00:31:12;17.10;75.70
8103;DHT22;4094;49.948;11.574;2023-08-30T00:33:42;17.10;75.80
8103;DHT22;4094;49.948;11.574;2023-08-30T00:36:12;17.10;75.90
8103;DHT22;4094;49.948;11.574;2023-08-30T00:38:41;17.10;76.00
8103;DHT22;4094;49.948;11.574;2023-08-30T00:41:12;17.10;76.00
8103;DHT22;4094;49.948;11.574;2023-08-30T00:43:42;17.10;76.00
8103;DHT22;4094;49.948;11.574;2023-08-30T00:46:11;17.10;76.00
8103;DHT22;4094;49.948;11.574;2023-08-30T00:48:40;17.10;76.20
8103;DHT22;4094;49.948;11.574;2023-08-30T00:51:09;17.00;76.00
8103;DHT22;4094;49.948;11.574;2023-08-30T00:53:39;17.00;76.20
8103;DHT22;4094;49.948;11.574;2023-08-30T00:56:08;17.00;76.10
8103;DHT22;4094;49.948;11.574;2023-08-30T00:58:39;17.00;76.10
8103;DHT22;4094;49.948;11.574;2023-08-30T01:01:08;17.00;76.20
8103;DHT22;4094;49.948;11.574;2023-08-30T01:03:38;17.00;76.10
8103;DHT22;4094;49.948;11.574;2023-08-30T01:06:07;17.00;76.10
8103;DHT22;4094;49.948;11.574;2023-08-30T01:08:37;17.00;76.20
8103;DHT22;4094;49.948;11.574;2023-08-30T01:11:11;17.00;76.20
8103;DHT22;4094;49.948;11.574;2023-08-30T01:13:47;17.00;76.20
8103;DHT22;4094;49.948;11.574;2023-08-30T01:16:19;17.00;76.20
8103;DHT22;4094;49.948;11.574;2023-08-30T01:18:55;16.90;76.20
8103;DHT22;4094;49.948;11.574;2023-08-30T01:21:32;16.90;76.20
8103;DHT22;4094;49.948;11.574;2023-08-30T01:24:04;16.90;76.20
8103;DHT22;4094;49.948;11.574;2023-08-30T01:26:41;16.90;76.20
8103;DHT22;4094;49.948;11.574;2023-08-30T01:29:14;16.90;76.30
8103;DHT22;4094;49.948;11.574;2023-08-30T01:31:46;16.90;76.30
8103;DHT22;4094;49.948;11.574;2023-08-30T01:34:16;16.90;76.30
8103;DHT22;4094;49.948;11.574;2023-08-30T01:36:46;16.80;76.30
8103;DHT22;4094;49.948;11.574;2023-08-30T01:39:15;16.80;76.40
8103;DHT22;4094;49.948;11.574;2023-08-30T01:41:45;16.80;76.40
8103;DHT22;4094;49.948;11.574;2023-08-30T01:44:17;16.80;76.50
8103;DHT22;4094;49.948;11.574;2023-08-30T01:46:47;16.80;76.50
8103;DHT22;4094;49.948;11.574;2023-08-30T01:49:17;16.80;76.30
8103;DHT22;4094;49.948;11.574;2023-08-30T01:51:46;16.80;76.40
8103;DHT22;4094;49.948;11.574;2023-08-30T01:54:18;16.80;77.20
8103;DHT22;4094;49.948;11.574;2023-08-30T01:56:48;16.80;76.50
8103;DHT22;4094;49.948;11.574;2023-08-30T01:59:19;16.80;76.50
8103;DHT22;4094;49.948;11.574;2023-08-30T02:01:48;16.80;76.60
8103;DHT22;4094;49.948;11.574;2023-08-30T02:04:17;16.80;76.50
8103;DHT22;4094;49.948;11.574;2023-08-30T02:06:50;16.80;76.50
8103;DHT22;4094;49.948;11.574;2023-08-30T02:09:28;16.80;76.60
8103;DHT22;4094;49.948;11.574;2023-08-30T02:12:00;16.70;76.60
8103;DHT22;4094;49.948;11.574;2023-08-30T02:14:35;16.70;76.70
8103;DHT22;4094;49.948;11.574;2023-08-30T02:17:06;16.70;76.60
8103;DHT22;4094;49.948;11.574;2023-08-30T02:19:35;16.70;76.50
8103;DHT22;4094;49.948;11.574;2023-08-30T02:22:04;16.70;76.50
8103;DHT22;4094;49.948;11.574;2023-08-30T02:24:33;16.70;76.60
8103;DHT22;4094;49.948;11.574;2023-08-30T02:27:03;16.70;76.50
8103;DHT22;4094;49.948;11.574;2023-08-30T02:29:35;16.70;76.50
8103;DHT22;4094;49.948;11.574;2023-08-30T02:32:06;16.70;76.70
8103;DHT22;4094;49.948;11.574;2023-08-30T02:34:35;16.70;76.70
8103;DHT22;4094;49.948;11.574;2023-08-30T02:37:04;16.70;76.80
8103;DHT22;4094;49.948;11.574;2023-08-30T02:39:33;16.70;76.80
8103;DHT22;4094;49.948;11.574;2023-08-30T02:42:03;16.70;76.80
8103;DHT22;4094;49.948;11.574;2023-08-30T02:44:32;16.70;76.70
8103;DHT22;4094;49.948;11.574;2023-08-30T02:47:03;16.70;76.70
8103;DHT22;4094;49.948;11.574;2023-08-30T02:49:33;16.70;76.70
8103;DHT22;4094;49.948;11.574;2023-08-30T02:52:02;16.70;76.60
8103;DHT22;4094;49.948;11.574;2023-08-30T02:54:32;16.60;76.50
8103;DHT22;4094;49.948;11.574;2023-08-30T02:57:01;16.60;76.50
8103;DHT22;4094;49.948;11.574;2023-08-30T02:59:30;16.60;76.70
8103;DHT22;4094;49.948;11.574;2023-08-30T03:02:06;16.60;76.80
8103;DHT22;4094;49.948;11.574;2023-08-30T03:04:35;16.60;76.70
8103;DHT22;4094;49.948;11.574;2023-08-30T03:07:06;16.60;76.60
8103;DHT22;4094;49.948;11.574;2023-08-30T03:09:35;16.60;76.40
8103;DHT22;4094;49.948;11.574;2023-08-30T03:12:06;16.60;76.30
8103;DHT22;4094;49.948;11.574;2023-08-30T03:14:36;16.60;76.30
8103;DHT22;4094;49.948;11.574;2023-08-30T03:17:06;16.60;76.50
8103;DHT22;4094;49.948;11.574;2023-08-30T03:19:37;16.60;76.50
8103;DHT22;4094;49.948;11.574;2023-08-30T03:22:06;16.60;76.60
8103;DHT22;4094;49.948;11.574;2023-08-30T03:24:35;16.60;76.70
8103;DHT22;4094;49.948;11.574;2023-08-30T03:27:04;16.60;76.80
8103;DHT22;4094;49.948;11.574;2023-08-30T03:29:33;16.60;76.80
8103;DHT22;4094;49.948;11.574;2023-08-30T03:32:03;16.60;77.00
8103;DHT22;4094;49.948;11.574;2023-08-30T03:34:35;16.60;76.80
8103;DHT22;4094;49.948;11.574;2023-08-30T03:37:04;16.60;76.70
8103;DHT22;4094;49.948;11.574;2023-08-30T03:39:34;16.60;76.50
8103;DHT22;4094;49.948;11.574;2023-08-30T03:42:04;16.60;76.50
8103;DHT22;4094;49.948;11.574;2023-08-30T03:44:34;16.60;76.50
8103;DHT22;4094;49.948;11.574;2023-08-30T03:47:07;16.60;76.50
8103;DHT22;4094;49.948;11.574;2023-08-30T03:49:37;16.60;76.50
8103;DHT22;4094;49.948;11.574;2023-08-30T03:52:07;16.60;76.30
8103;DHT22;4094;49.948;11.574;2023-08-30T03:54:36;16.60;76.40
8103;DHT22;4094;49.948;11.574;2023-08-30T03:57:05;16.60;76.50
8103;DHT22;4094;49.948;11.574;2023-08-30T03:59:34;16.60;76.30
8103;DHT22;4094;49.948;11.574;2023-08-30T04:02:03;16.60;76.50
8103;DHT22;4094;49.948;11.574;2023-08-30T04:04:33;16.60;76.50
8103;DHT22;4094;49.948;11.574;2023-08-30T04:07:03;16.60;76.60
8103;DHT22;4094;49.948;11.574;2023-08-30T04:09:33;16.60;76.50
8103;DHT22;4094;49.948;11.574;2023-08-30T04:12:04;16.60;76.40
8103;DHT22;4094;49.948;11.574;2023-08-30T04:14:33;16.60;76.30
8103;DHT22;4094;49.948;11.574;2023-08-30T04:17:03;16.50;76.30
8103;DHT22;4094;49.948;11.574;2023-08-30T04:19:34;16.50;76.30
8103;DHT22;4094;49.948;11.574;2023-08-30T04:22:05;16.50;76.40
8103;DHT22;4094;49.948;11.574;2023-08-30T04:24:33;16.50;76.50
8103;DHT22;4094;49.948;11.574;2023-08-30T04:27:03;16.50;76.70
8103;DHT22;4094;49.948;11.574;2023-08-30T04:29:33;16.50;76.60
8103;DHT22;4094;49.948;11.574;2023-08-30T04:32:03;16.50;76.70
8103;DHT22;4094;49.948;11.574;2023-08-30T04:34:32;16.50;76.50
8103;DHT22;4094;49.948;11.574;2023-08-30T04:37:02;16.50;76.50
8103;DHT22;4094;49.948;11.574;2023-08-30T04:39:33;16.50;76.50
8103;DHT22;4094;49.948;11.574;2023-08-30T04:42:02;16.50;76.50
8103;DHT22;4094;49.948;11.574;2023-08-30T04:44:32;16.50;76.50
8103;DHT22;4094;49.948;11.574;2023-08-30T04:47:01;16.50;76.50
8103;DHT22;4094;49.948;11.574;2023-08-30T04:49:31;16.50;76.50
8103;DHT22;4094;49.948;11.574;2023-08-30T04:52:02;16.50;76.40
8103;DHT22;4094;49.948;11.574;2023-08-30T04:54:33;16.50;76.50
8103;DHT22;4094;49.948;11.574;2023-08-30T04:57:02;16.50;76.40
8103;DHT22;4094;49.948;11.574;2023-08-30T04:59:33;16.50;76.40
8103;DHT22;4094;49.948;11.574;2023-08-30T05:02:03;16.50;76.40
8103;DHT22;4094;49.948;11.574;2023-08-30T05:04:36;16.50;76.50
8103;DHT22;4094;49.948;11.574;2023-08-30T05:07:05;16.50;76.50
8103;DHT22;4094;49.948;11.574;2023-08-30T05:09:36;16.50;76.50
8103;DHT22;4094;49.948;11.574;2023-08-30T05:12:05;16.50;76.50
8103;DHT22;4094;49.948;11.574;2023-08-30T05:14:35;16.50;76.40
8103;DHT22;4094;49.948;11.574;2023-08-30T05:17:04;16.50;76.40
8103;DHT22;4094;49.948;11.574;2023-08-30T05:19:33;16.50;76.30
8103;DHT22;4094;49.948;11.574;2023-08-30T05:22:04;16.50;76.20
8103;DHT22;4094;49.948;11.574;2023-08-30T05:24:35;16.50;76.30
8103;DHT22;4094;49.948;11.574;2023-08-30T05:27:05;16.50;76.40
8103;DHT22;4094;49.948;11.574;2023-08-30T05:29:40;16.50;76.30
8103;DHT22;4094;49.948;11.574;2023-08-30T05:32:09;16.60;76.50
8103;DHT22;4094;49.948;11.574;2023-08-30T05:34:41;16.60;76.70
8103;DHT22;4094;49.948;11.574;2023-08-30T05:37:24;16.60;76.70
8103;DHT22;4094;49.948;11.574;2023-08-30T05:40:14;16.60;76.70
8103;DHT22;4094;49.948;11.574;2023-08-30T05:42:45;16.60;76.70
8103;DHT22;4094;49.948;11.574;2023-08-30T05:45:14;16.70;76.60
8103;DHT22;4094;49.948;11.574;2023-08-30T05:47:44;16.70;76.50
8103;DHT22;4094;49.948;11.574;2023-08-30T05:50:13;16.70;76.40
8103;DHT22;4094;49.948;11.574;2023-08-30T05:52:42;16.70;76.50
8103;DHT22;4094;49.948;11.574;2023-08-30T05:55:14;16.70;76.70
8103;DHT22;4094;49.948;11.574;2023-08-30T05:57:43;16.70;76.80
8103;DHT22;4094;49.948;11.574;2023-08-30T06:00:13;16.70;76.60
8103;DHT22;4094;49.948;11.574;2023-08-30T06:02:42;16.80;76.50
8103;DHT22;4094;49.948;11.574;2023-08-30T06:05:12;16.80;76.60
8103;DHT22;4094;49.948;11.574;2023-08-30T06:07:41;16.80;76.60
8103;DHT22;4094;49.948;11.574;2023-08-30T06:10:10;16.80;76.50
8103;DHT22;4094;49.948;11.574;2023-08-30T06:12:41;16.80;76.50
8103;DHT22;4094;49.948;11.574;2023-08-30T06:15:10;16.90;76.50
8103;DHT22;4094;49.948;11.574;2023-08-30T06:17:39;16.90;76.50
8103;DHT22;4094;49.948;11.574;2023-08-30T06:20:09;16.90;76.50
8103;DHT22;4094;49.948;11.574;2023-08-30T06:22:39;17.00;77.10
8103;DHT22;4094;49.948;11.574;2023-08-30T06:25:13;17.00;76.20
8103;DHT22;4094;49.948;11.574;2023-08-30T06:27:55;17.00;76.30
8103;DHT22;4094;49.948;11.574;2023-08-30T06:30:25;17.00;76.30
8103;DHT22;4094;49.948;11.574;2023-08-30T06:32:54;17.10;76.00
8103;DHT22;4094;49.948;11.574;2023-08-30T06:35:24;17.10;76.00
8103;DHT22;4094;49.948;11.574;2023-08-30T06:37:53;17.10;76.10
8103;DHT22;4094;49.948;11.574;2023-08-30T06:40:24;17.10;76.00
8103;DHT22;4094;49.948;11.574;2023-08-30T06:42:54;17.10;76.20
8103;DHT22;4094;49.948;11.574;2023-08-30T06:45:23;17.10;76.30
8103;DHT22;4094;49.948;11.574;2023-08-30T06:47:53;17.10;76.50
8103;DHT22;4094;49.948;11.574;2023-08-30T06:50:22;17.20;76.40
8103;DHT22;4094;49.948;11.574;2023-08-30T06:52:51;17.30;76.30
8103;DHT22;4094;49.948;11.574;2023-08-30T06:55:21;17.30;76.10
8103;DHT22;4094;49.948;11.574;2023-08-30T06:57:50;17.40;76.10
8103;DHT22;4094;49.948;11.574;2023-08-30T07:00:21;17.40;76.10
8103;DHT22;4094;49.948;11.574;2023-08-30T07:02:52;17.50;76.10
8103;DHT22;4094;49.948;11.574;2023-08-30T07:05:22;17.50;76.10
8103;DHT22;4094;49.948;11.574;2023-08-30T07:07:51;17.50;75.80
8103;DHT22;4094;49.948;11.574;2023-08-30T07:10:20;17.60;75.90
8103;DHT22;4094;49.948;11.574;2023-08-30T07:12:50;17.60;75.60
8103;DHT22;4094;49.948;11.574;2023-08-30T07:15:20;17.70;75.50
8103;DHT22;4094;49.948;11.574;2023-08-30T07:17:50;17.70;75.50
8103;DHT22;4094;49.948;11.574;2023-08-30T07:20:22;17.70;75.60
8103;DHT22;4094;49.948;11.574;2023-08-30T07:22:51;17.70;75.70
8103;DHT22;4094;49.948;11.574;2023-08-30T07:25:21;17.70;76.00
8103;DHT22;4094;49.948;11.574;2023-08-30T07:27:50;17.80;76.10
8103;DHT22;4094;49.948;11.574;2023-08-30T07:30:20;17.80;76.10
8103;DHT22;4094;49.948;11.574;2023-08-30T07:32:50;17.90;76.00
8103;DHT22;4094;49.948;11.574;2023-08-30T07:35:19;17.90;76.00
8103;DHT22;4094;49.948;11.574;2023-08-30T07:37:48;17.90;75.90
8103;DHT22;4094;49.948;11.574;2023-08-30T07:40:17;18.10;76.20
8103;DHT22;4094;49.948;11.574;2023-08-30T07:42:48;18.10;76.10
8103;DHT22;4094;49.948;11.574;2023-08-30T07:45:17;18.20;76.30
8103;DHT22;4094;49.948;11.574;2023-08-30T07:47:48;18.30;76.50
8103;DHT22;4094;49.948;11.574;2023-08-30T07:50:21;18.50;77.20
8103;DHT22;4094;49.948;11.574;2023-08-30T07:52:50;18.70;76.60
8103;DHT22;4094;49.948;11.574;2023-08-30T07:55:19;19.00;75.80
8103;DHT22;4094;49.948;11.574;2023-08-30T07:57:48;19.10;74.60
8103;DHT22;4094;49.948;11.574;2023-08-30T08:00:17;19.30;74.60
8103;DHT22;4094;49.948;11.574;2023-08-30T08:02:48;19.40;74.20
8103;DHT22;4094;49.948;11.574;2023-08-30T08:05:17;19.50;73.70
8103;DHT22;4094;49.948;11.574;2023-08-30T08:07:51;19.70;73.90
8103;DHT22;4094;49.948;11.574;2023-08-30T08:10:20;19.80;73.10
8103;DHT22;4094;49.948;11.574;2023-08-30T08:12:49;19.90;72.50
8103;DHT22;4094;49.948;11.574;2023-08-30T08:15:19;20.00;71.90
8103;DHT22;4094;49.948;11.574;2023-08-30T08:17:49;20.10;71.40
8103;DHT22;4094;49.948;11.574;2023-08-30T08:20:18;20.10;71.10
8103;DHT22;4094;49.948;11.574;2023-08-30T08:22:47;20.20;71.40
8103;DHT22;4094;49.948;11.574;2023-08-30T08:25:17;20.20;71.10
8103;DHT22;4094;49.948;11.574;2023-08-30T08:27:46;20.30;71.10
8103;DHT22;4094;49.948;11.574;2023-08-30T08:30:15;20.30;71.20
8103;DHT22;4094;49.948;11.574;2023-08-30T08:32:46;20.40;70.90
8103;DHT22;4094;49.948;11.574;2023-08-30T08:35:17;20.50;70.60
8103;DHT22;4094;49.948;11.574;2023-08-30T08:37:46;20.50;69.80
8103;DHT22;4094;49.948;11.574;2023-08-30T08:40:15;20.60;69.70
8103;DHT22;4094;49.948;11.574;2023-08-30T08:42:53;20.60;69.70
8103;DHT22;4094;49.948;11.574;2023-08-30T08:45:24;20.70;69.90
8103;DHT22;4094;49.948;11.574;2023-08-30T08:47:54;20.70;69.40
8103;DHT22;4094;49.948;11.574;2023-08-30T08:50:26;20.80;69.30
8103;DHT22;4094;49.948;11.574;2023-08-30T08:52:59;20.80;67.70
8103;DHT22;4094;49.948;11.574;2023-08-30T08:55:29;20.80;68.20
8103;DHT22;4094;49.948;11.574;2023-08-30T08:57:59;20.70;68.40
8103;DHT22;4094;49.948;11.574;2023-08-30T09:00:30;20.70;68.10
8103;DHT22;4094;49.948;11.574;2023-08-30T09:03:00;20.70;68.20
8103;DHT22;4094;49.948;11.574;2023-08-30T09:05:35;20.60;67.90
8103;DHT22;4094;49.948;11.574;2023-08-30T09:08:06;20.60;68.60
8103;DHT22;4094;49.948;11.574;2023-08-30T09:10:35;20.60;68.90
8103;DHT22;4094;49.948;11.574;2023-08-30T09:13:05;20.60;68.00
8103;DHT22;4094;49.948;11.574;2023-08-30T09:15:35;20.70;68.60
8103;DHT22;4094;49.948;11.574;2023-08-30T09:18:14;20.70;68.60
8103;DHT22;4094;49.948;11.574;2023-08-30T09:20:45;20.70;67.80
8103;DHT22;4094;49.948;11.574;2023-08-30T09:23:18;20.80;68.10
8103;DHT22;4094;49.948;11.574;2023-08-30T09:25:54;20.80;68.50
8103;DHT22;4094;49.948;11.574;2023-08-30T09:28:23;20.90;68.40
8103;DHT22;4094;49.948;11.574;2023-08-30T09:30:52;20.90;68.40
8103;DHT22;4094;49.948;11.574;2023-08-30T09:33:22;21.00;67.50
8103;DHT22;4094;49.948;11.574;2023-08-30T09:35:52;21.00;67.10
8103;DHT22;4094;49.948;11.574;2023-08-30T09:38:21;21.10;66.70
8103;DHT22;4094;49.948;11.574;2023-08-30T09:40:51;21.10;67.00
8103;DHT22;4094;49.948;11.574;2023-08-30T09:43:23;21.10;66.20
8103;DHT22;4094;49.948;11.574;2023-08-30T09:45:53;21.10;66.40
8103;DHT22;4094;49.948;11.574;2023-08-30T09:48:27;21.20;67.10
8103;DHT22;4094;49.948;11.574;2023-08-30T09:50:59;21.30;67.00
8103;DHT22;4094;49.948;11.574;2023-08-30T09:53:33;21.40;66.60
8103;DHT22;4094;49.948;11.574;2023-08-30T09:56:21;21.50;65.70
8103;DHT22;4094;49.948;11.574;2023-08-30T09:58:51;21.60;65.20
8103;DHT22;4094;49.948;11.574;2023-08-30T10:01:22;21.70;64.00
8103;DHT22;4094;49.948;11.574;2023-08-30T10:03:52;21.70;63.70
8103;DHT22;4094;49.948;11.574;2023-08-30T10:06:25;21.80;64.20
8103;DHT22;4094;49.948;11.574;2023-08-30T10:08:56;21.70;62.60
8103;DHT22;4094;49.948;11.574;2023-08-30T10:11:27;21.80;63.40
8103;DHT22;4094;49.948;11.574;2023-08-30T10:13:58;21.80;62.70
8103;DHT22;4094;49.948;11.574;2023-08-30T10:16:30;21.80;63.20
8103;DHT22;4094;49.948;11.574;2023-08-30T10:19:03;21.80;62.70
8103;DHT22;4094;49.948;11.574;2023-08-30T10:21:35;21.90;63.40
8103;DHT22;4094;49.948;11.574;2023-08-30T10:24:07;22.00;63.10
8103;DHT22;4094;49.948;11.574;2023-08-30T10:26:58;22.00;61.80
8103;DHT22;4094;49.948;11.574;2023-08-30T10:29:28;22.10;61.70
8103;DHT22;4094;49.948;11.574;2023-08-30T10:32:02;22.10;62.40
8103;DHT22;4094;49.948;11.574;2023-08-30T10:34:32;22.20;63.10
8103;DHT22;4094;49.948;11.574;2023-08-30T10:37:06;22.30;61.20
8103;DHT22;4094;49.948;11.574;2023-08-30T10:39:37;22.30;60.50
8103;DHT22;4094;49.948;11.574;2023-08-30T10:42:10;22.30;60.00
8103;DHT22;4094;49.948;11.574;2023-08-30T10:44:49;22.40;60.20
8103;DHT22;4094;49.948;11.574;2023-08-30T10:47:22;22.40;59.70
8103;DHT22;4094;49.948;11.574;2023-08-30T10:49:54;22.50;59.20
8103;DHT22;4094;49.948;11.574;2023-08-30T10:52:26;22.50;59.40
8103;DHT22;4094;49.948;11.574;2023-08-30T10:55:05;22.50;59.70
8103;DHT22;4094;49.948;11.574;2023-08-30T10:57:34;22.60;60.00
8103;DHT22;4094;49.948;11.574;2023-08-30T11:00:05;22.60;60.70
8103;DHT22;4094;49.948;11.574;2023-08-30T11:02:36;22.70;60.90
8103;DHT22;4094;49.948;11.574;2023-08-30T11:05:08;22.70;60.70
8103;DHT22;4094;49.948;11.574;2023-08-30T11:07:39;22.80;60.80
8103;DHT22;4094;49.948;11.574;2023-08-30T11:10:08;22.90;59.70
8103;DHT22;4094;49.948;11.574;2023-08-30T11:12:40;22.90;59.90
8103;DHT22;4094;49.948;11.574;2023-08-30T11:15:11;23.00;60.30
8103;DHT22;4094;49.948;11.574;2023-08-30T11:17:42;23.00;59.30
8103;DHT22;4094;49.948;11.574;2023-08-30T11:20:13;23.00;59.20
8103;DHT22;4094;49.948;11.574;2023-08-30T11:22:47;23.00;59.40
8103;DHT22;4094;49.948;11.574;2023-08-30T11:25:17;23.10;59.90
8103;DHT22;4094;49.948;11.574;2023-08-30T11:27:46;23.20;59.70
8103;DHT22;4094;49.948;11.574;2023-08-30T11:30:16;23.20;59.20
8103;DHT22;4094;49.948;11.574;2023-08-30T11:32:46;23.20;58.90
8103;DHT22;4094;49.948;11.574;2023-08-30T11:35:16;23.20;58.70
8103;DHT22;4094;49.948;11.574;2023-08-30T11:37:47;23.30;59.00
8103;DHT22;4094;49.948;11.574;2023-08-30T11:40:17;23.40;59.20
8103;DHT22;4094;49.948;11.574;2023-08-30T11:42:48;23.40;58.60
8103;DHT22;4094;49.948;11.574;2023-08-30T11:45:17;23.50;57.60
8103;DHT22;4094;49.948;11.574;2023-08-30T11:47:47;23.60;56.80
8103;DHT22;4094;49.948;11.574;2023-08-30T11:50:16;23.60;55.60
8103;DHT22;4094;49.948;11.574;2023-08-30T11:52:50;23.60;54.90
8103;DHT22;4094;49.948;11.574;2023-08-30T11:55:20;23.60;55.70
8103;DHT22;4094;49.948;11.574;2023-08-30T11:57:51;23.50;55.20
8103;DHT22;4094;49.948;11.574;2023-08-30T12:00:21;23.60;56.70
8103;DHT22;4094;49.948;11.574;2023-08-30T12:02:51;23.60;55.30
8103;DHT22;4094;49.948;11.574;2023-08-30T12:05:20;23.60;55.90
8103;DHT22;4094;49.948;11.574;2023-08-30T12:07:51;23.60;55.90
8103;DHT22;4094;49.948;11.574;2023-08-30T12:10:20;23.60;55.90
8103;DHT22;4094;49.948;11.574;2023-08-30T12:12:49;23.60;55.40
8103;DHT22;4094;49.948;11.574;2023-08-30T12:15:22;23.50;55.50
8103;DHT22;4094;49.948;11.574;2023-08-30T12:17:54;23.50;55.50
8103;DHT22;4094;49.948;11.574;2023-08-30T12:20:24;23.50;54.10
8103;DHT22;4094;49.948;11.574;2023-08-30T12:22:54;23.50;54.90
8103;DHT22;4094;49.948;11.574;2023-08-30T12:25:24;23.60;55.20
8103;DHT22;4094;49.948;11.574;2023-08-30T12:27:54;23.60;55.50
8103;DHT22;4094;49.948;11.574;2023-08-30T12:30:23;23.70;55.40
8103;DHT22;4094;49.948;11.574;2023-08-30T12:33:00;23.70;54.80
8103;DHT22;4094;49.948;11.574;2023-08-30T12:35:29;23.80;54.90
8103;DHT22;4094;49.948;11.574;2023-08-30T12:37:59;23.80;54.90
8103;DHT22;4094;49.948;11.574;2023-08-30T12:40:28;23.70;53.80
8103;DHT22;4094;49.948;11.574;2023-08-30T12:42:58;23.70;53.80
8103;DHT22;4094;49.948;11.574;2023-08-30T12:45:27;23.60;54.80
8103;DHT22;4094;49.948;11.574;2023-08-30T12:47:56;23.50;54.60
8103;DHT22;4094;49.948;11.574;2023-08-30T12:50:26;23.50;55.10
8103;DHT22;4094;49.948;11.574;2023-08-30T12:52:57;23.40;54.80
8103;DHT22;4094;49.948;11.574;2023-08-30T12:55:28;23.30;54.20
8103;DHT22;4094;49.948;11.574;2023-08-30T12:57:58;23.30;54.40
8103;DHT22;4094;49.948;11.574;2023-08-30T13:00:27;23.20;54.70
8103;DHT22;4094;49.948;11.574;2023-08-30T13:02:56;23.20;55.60
8103;DHT22;4094;49.948;11.574;2023-08-30T13:05:26;23.20;55.80
8103;DHT22;4094;49.948;11.574;2023-08-30T13:07:56;23.10;56.50
8103;DHT22;4094;49.948;11.574;2023-08-30T13:10:26;23.10;56.40
8103;DHT22;4094;49.948;11.574;2023-08-30T13:12:55;23.10;56.50
8103;DHT22;4094;49.948;11.574;2023-08-30T13:15:25;23.00;56.80
8103;DHT22;4094;49.948;11.574;2023-08-30T13:17:54;22.90;56.70
8103;DHT22;4094;49.948;11.574;2023-08-30T13:20:24;22.90;57.20
8103;DHT22;4094;49.948;11.574;2023-08-30T13:22:53;22.80;57.40
8103;DHT22;4094;49.948;11.574;2023-08-30T13:25:23;22.80;57.60
8103;DHT22;4094;49.948;11.574;2023-08-30T13:27:53;22.70;57.90
8103;DHT22;4094;49.948;11.574;2023-08-30T13:30:23;22.70;57.80
8103;DHT22;4094;49.948;11.574;2023-08-30T13:32:53;22.60;57.90
8103;DHT22;4094;49.948;11.574;2023-08-30T13:35:22;22.60;58.10
8103;DHT22;4094;49.948;11.574;2023-08-30T13:37:51;22.50;58.80
8103;DHT22;4094;49.948;11.574;2023-08-30T13:40:20;22.50;58.10
8103;DHT22;4094;49.948;11.574;2023-08-30T13:42:49;22.40;57.70
8103;DHT22;4094;49.948;11.574;2023-08-30T13:45:20;22.40;57.90
8103;DHT22;4094;49.948;11.574;2023-08-30T13:47:49;22.40;58.10
8103;DHT22;4094;49.948;11.574;2023-08-30T13:50:20;22.40;58.70
8103;DHT22;4094;49.948;11.574;2023-08-30T13:52:50;22.50;58.30
8103;DHT22;4094;49.948;11.574;2023-08-30T13:55:19;22.50;57.60
8103;DHT22;4094;49.948;11.574;2023-08-30T13:57:48;22.50;57.80
8103;DHT22;4094;49.948;11.574;2023-08-30T14:00:20;22.50;57.70
8103;DHT22;4094;49.948;11.574;2023-08-30T14:02:49;22.50;57.70
8103;DHT22;4094;49.948;11.574;2023-08-30T14:05:19;22.50;57.50
8103;DHT22;4094;49.948;11.574;2023-08-30T14:07:49;22.50;57.50
8103;DHT22;4094;49.948;11.574;2023-08-30T14:10:19;22.50;57.70
8103;DHT22;4094;49.948;11.574;2023-08-30T14:12:48;22.50;57.80
8103;DHT22;4094;49.948;11.574;2023-08-30T14:15:17;22.60;57.70
8103;DHT22;4094;49.948;11.574;2023-08-30T14:17:48;22.60;58.00
8103;DHT22;4094;49.948;11.574;2023-08-30T14:20:18;22.70;57.10
8103;DHT22;4094;49.948;11.574;2023-08-30T14:22:47;22.70;56.60
8103;DHT22;4094;49.948;11.574;2023-08-30T14:25:16;22.70;56.60
8103;DHT22;4094;49.948;11.574;2023-08-30T14:27:46;22.80;55.40
8103;DHT22;4094;49.948;11.574;2023-08-30T14:30:16;22.80;55.10
8103;DHT22;4094;49.948;11.574;2023-08-30T14:32:45;22.90;54.60
8103;DHT22;4094;49.948;11.574;2023-08-30T14:35:16;22.90;54.70
8103;DHT22;4094;49.948;11.574;2023-08-30T14:37:45;22.90;54.50
8103;DHT22;4094;49.948;11.574;2023-08-30T14:40:15;22.90;55.10
8103;DHT22;4094;49.948;11.574;2023-08-30T14:42:51;22.80;55.30
8103;DHT22;4094;49.948;11.574;2023-08-30T14:45:24;22.80;55.20
8103;DHT22;4094;49.948;11.574;2023-08-30T14:47:53;22.80;55.30
8103;DHT22;4094;49.948;11.574;2023-08-30T14:50:24;22.80;55.70
8103;DHT22;4094;49.948;11.574;2023-08-30T14:52:53;22.70;55.70
8103;DHT22;4094;49.948;11.574;2023-08-30T14:55:23;22.70;55.70
8103;DHT22;4094;49.948;11.574;2023-08-30T14:57:54;22.70;56.20
8103;DHT22;4094;49.948;11.574;2023-08-30T15:00:23;22.70;56.20
8103;DHT22;4094;49.948;11.574;2023-08-30T15:02:55;22.70;56.30
8103;DHT22;4094;49.948;11.574;2023-08-30T15:05:25;22.70;56.20
8103;DHT22;4094;49.948;11.574;2023-08-30T15:07:55;22.70;56.50
8103;DHT22;4094;49.948;11.574;2023-08-30T15:10:24;22.60;57.00
8103;DHT22;4094;49.948;11.574;2023-08-30T15:12:53;22.60;56.80
8103;DHT22;4094;49.948;11.574;2023-08-30T15:15:22;22.60;56.80
8103;DHT22;4094;49.948;11.574;2023-08-30T15:17:52;22.50;57.00
8103;DHT22;4094;49.948;11.574;2023-08-30T15:20:21;22.50;56.90
8103;DHT22;4094;49.948;11.574;2023-08-30T15:22:52;22.50;56.90
8103;DHT22;4094;49.948;11.574;2023-08-30T15:25:21;22.40;56.90
8103;DHT22;4094;49.948;11.574;2023-08-30T15:27:50;22.40;57.00
8103;DHT22;4094;49.948;11.574;2023-08-30T15:30:20;22.40;57.30
8103;DHT22;4094;49.948;11.574;2023-08-30T15:32:49;22.30;57.10
8103;DHT22;4094;49.948;11.574;2023-08-30T15:35:18;22.30;57.40
8103;DHT22;4094;49.948;11.574;2023-08-30T15:37:47;22.30;57.60
8103;DHT22;4094;49.948;11.574;2023-08-30T15:40:19;22.20;57.70
8103;DHT22;4094;49.948;11.574;2023-08-30T15:42:50;22.20;57.70
8103;DHT22;4094;49.948;11.574;2023-08-30T15:45:19;22.20;57.70
8103;DHT22;4094;49.948;11.574;2023-08-30T15:47:48;22.20;57.90
8103;DHT22;4094;49.948;11.574;2023-08-30T15:50:17;22.20;58.10
8103;DHT22;4094;49.948;11.574;2023-08-30T15:52:47;22.20;57.80
8103;DHT22;4094;49.948;11.574;2023-08-30T15:55:17;22.20;57.70
8103;DHT22;4094;49.948;11.574;2023-08-30T15:57:47;22.20;57.90
8103;DHT22;4094;49.948;11.574;2023-08-30T16:00:17;22.20;57.80
8103;DHT22;4094;49.948;11.574;2023-08-30T16:02:47;22.10;58.00
8103;DHT22;4094;49.948;11.574;2023-08-30T16:05:16;22.10;58.00